createdAt,value
2016-03-19T07:59:26.451Z,24238
2016-03-19T07:59:38.719Z,24110
2016-03-19T07:59:50.844Z,23992
2016-03-19T08:00:03.141Z,23825
2016-03-19T08:00:15.266Z,23641
2016-03-19T08:00:28.549Z,23466
2016-03-19T08:00:40.862Z,23390
2016-03-19T08:00:53.127Z,23374
2016-03-19T08:01:04.877Z,23416
2016-03-19T08:01:16.784Z,23306
2016-03-19T08:01:28.849Z,23309
2016-03-19T08:01:41.459Z,23759
2016-03-19T08:01:53.693Z,23853
2016-03-19T08:02:05.380Z,24110
2016-03-19T08:02:17.521Z,24158
2016-03-19T08:02:29.087Z,24075
2016-03-19T08:02:41.258Z,24009
2016-03-19T08:02:53.087Z,23897
2016-03-19T08:03:05.430Z,23793
2016-03-19T08:03:17.618Z,23526
2016-03-19T08:03:30.010Z,23379
2016-03-19T08:03:41.464Z,23247
2016-03-19T08:03:53.776Z,23128
2016-03-19T08:04:05.682Z,23060
2016-03-19T08:04:17.276Z,23196
2016-03-19T08:04:29.155Z,23202
2016-03-19T08:04:48.514Z,23162
2016-03-19T08:05:01.389Z,23165
2016-03-19T08:05:15.796Z,23047
2016-03-19T08:05:28.251Z,22871
2016-03-19T08:05:40.751Z,22643
2016-03-19T08:05:52.751Z,22458
2016-03-19T08:06:05.470Z,22006
2016-03-19T08:06:17.454Z,21573
2016-03-19T08:06:33.348Z,21175
2016-03-19T08:06:46.504Z,20911
2016-03-19T08:06:58.832Z,20975
2016-03-19T08:07:12.254Z,21006
2016-03-19T08:07:24.769Z,20963
2016-03-19T08:07:37.287Z,20899
2016-03-19T08:07:49.896Z,20894
2016-03-19T08:08:01.990Z,20959
2016-03-19T08:08:17.756Z,21004
2016-03-19T08:08:29.587Z,20970
2016-03-19T08:08:41.821Z,20876
2016-03-19T08:08:54.618Z,20675
2016-03-19T08:09:06.399Z,20554
2016-03-19T08:09:18.384Z,20458
2016-03-19T08:09:30.870Z,20353
2016-03-19T08:09:42.901Z,20287
2016-03-19T08:09:54.948Z,20244
2016-03-19T08:10:07.323Z,20244
2016-03-19T08:10:19.980Z,20189
2016-03-19T08:10:32.217Z,20254
2016-03-19T08:10:44.733Z,20339
2016-03-19T08:10:57.295Z,20426
2016-03-19T08:11:10.029Z,20425
2016-03-19T08:11:22.686Z,20481
2016-03-19T08:11:36.595Z,20486
2016-03-19T08:11:48.845Z,20504
2016-03-19T08:12:01.782Z,20367
2016-03-19T08:12:13.939Z,20239
2016-03-19T08:12:26.501Z,20130
2016-03-19T08:12:41.473Z,19836
2016-03-19T08:12:53.957Z,19617
2016-03-19T08:13:05.926Z,19353
2016-03-19T08:13:18.614Z,19015
2016-03-19T08:13:30.507Z,19003
2016-03-19T08:13:42.835Z,19033
2016-03-19T08:13:54.679Z,19148
2016-03-19T08:14:06.538Z,19312
2016-03-19T08:14:18.554Z,19461
2016-03-19T08:14:31.260Z,19486
2016-03-19T08:14:43.010Z,19484
2016-03-19T08:14:55.213Z,19473
2016-03-19T08:15:08.088Z,19488
2016-03-19T08:15:19.901Z,19530
2016-03-19T08:15:31.668Z,19562
2016-03-19T08:15:43.418Z,19590
2016-03-19T08:15:55.543Z,19770
2016-03-19T08:16:08.340Z,19903
2016-03-19T08:16:20.075Z,20004
2016-03-19T08:16:32.015Z,20008
2016-03-19T08:16:43.656Z,20039
2016-03-19T08:16:56.125Z,20051
2016-03-19T08:17:08.578Z,20152
2016-03-19T08:17:21.406Z,20338
2016-03-19T08:17:38.298Z,20646
2016-03-19T09:25:20.963Z,32814
2016-03-19T09:25:36.263Z,32637
2016-03-19T09:25:50.200Z,32585
2016-03-19T09:26:06.466Z,32504
2016-03-19T09:26:21.935Z,32052
2016-03-19T09:26:33.406Z,32131
2016-03-19T09:26:45.281Z,32191
2016-03-19T09:26:56.766Z,32393
2016-03-19T09:27:08.234Z,32529
2016-03-19T09:27:19.750Z,32786
2016-03-19T09:27:31.830Z,33064
2016-03-19T09:27:43.361Z,34189
2016-03-19T09:27:54.986Z,34422
2016-03-19T09:28:06.518Z,34687
2016-03-19T09:28:18.815Z,34946
2016-03-19T09:28:30.943Z,35227
2016-03-19T09:28:42.489Z,35459
2016-03-19T09:28:54.114Z,35700
2016-03-19T09:29:05.583Z,35758
2016-03-19T09:29:17.224Z,35984
2016-03-19T09:29:29.399Z,36054
2016-03-19T09:29:45.149Z,36133
2016-03-19T09:29:56.727Z,36202
2016-03-19T09:30:08.274Z,36168
2016-03-19T09:30:21.899Z,36123
2016-03-19T10:27:51.739Z,43571
2016-03-19T10:28:04.207Z,43763
2016-03-19T10:28:16.364Z,44264
2016-03-19T10:28:27.801Z,44606
2016-03-19T10:28:39.443Z,44902
2016-03-19T10:28:50.911Z,45208
2016-03-19T10:29:08.724Z,45770
2016-03-19T10:29:20.177Z,46092
2016-03-19T10:29:31.897Z,46452
2016-03-19T10:29:45.069Z,47361
2016-03-19T10:29:56.912Z,47682
2016-03-19T10:30:08.319Z,48379
2016-03-19T10:30:19.725Z,48826
2016-03-19T10:30:31.461Z,48853
2016-03-19T10:30:47.836Z,48649
2016-03-19T10:30:59.305Z,146420
2016-03-19T10:31:11.149Z,146388
2016-03-19T12:10:59.976Z,0
2016-03-19T12:11:14.929Z,0
2016-03-19T12:11:26.383Z,0
2016-03-19T12:11:38.307Z,0
2016-03-19T12:11:51.120Z,0
2016-03-19T12:12:02.479Z,0
2016-03-19T12:12:14.714Z,0
2016-03-19T12:12:26.573Z,0
2016-03-19T12:12:37.982Z,0
2016-03-19T12:12:50.951Z,0
2016-03-19T12:13:06.670Z,0
2016-03-19T12:13:23.482Z,0
2016-03-19T12:13:35.109Z,0
2016-03-19T12:13:46.797Z,0
2016-03-19T12:13:59.625Z,0
2016-03-19T12:14:11.187Z,0
2016-03-19T12:14:22.766Z,0
2016-03-19T12:14:34.237Z,0
2016-03-19T12:14:46.237Z,0
2016-03-19T12:14:58.378Z,0
2016-03-19T12:15:10.347Z,0
2016-03-19T12:15:24.940Z,0
2016-03-19T12:15:36.661Z,0
2016-03-19T12:15:48.255Z,0
2016-03-19T12:15:59.677Z,0
2016-03-19T12:16:12.067Z,0
2016-03-19T12:16:23.599Z,0
2016-03-19T12:16:35.117Z,0
2016-03-19T12:16:46.680Z,0
2016-03-19T12:16:58.774Z,0
2016-03-19T12:17:10.305Z,0
2016-03-19T12:17:21.836Z,0
2016-03-19T12:17:33.401Z,0
2016-03-19T12:17:45.354Z,0
2016-03-19T12:17:56.932Z,0
2016-03-19T12:18:08.510Z,0
2016-03-19T12:18:20.057Z,0
2016-03-19T12:18:32.061Z,0
2016-03-19T12:18:43.967Z,0
2016-03-19T12:18:56.030Z,0
2016-03-19T12:19:08.608Z,0
2016-03-19T12:19:20.170Z,0
2016-03-19T12:19:32.469Z,0
2016-03-19T12:19:44.469Z,0
2016-03-19T12:19:56.172Z,0
2016-03-19T12:20:12.844Z,0
2016-03-19T12:20:25.500Z,0
2016-03-19T12:20:37.160Z,0
2016-03-19T12:20:48.769Z,0
2016-03-19T12:21:00.410Z,0
2016-03-19T12:21:12.113Z,0
2016-03-19T12:21:24.222Z,0
2016-03-19T12:21:35.896Z,0
2016-03-19T12:21:47.537Z,0
2016-03-19T12:21:59.099Z,0
2016-03-19T12:22:11.724Z,0
2016-03-19T12:22:23.224Z,0
2016-03-19T12:22:34.743Z,0
2016-03-19T12:22:46.274Z,0
2016-03-19T12:22:57.883Z,0
2016-03-19T12:23:09.477Z,0
2016-03-19T12:23:21.493Z,0
2016-03-19T12:23:32.964Z,0
2016-03-19T12:23:44.855Z,0
2016-03-19T12:23:56.824Z,0
2016-03-19T12:24:08.339Z,0
2016-03-19T12:24:19.902Z,0
2016-03-19T12:24:31.358Z,0
2016-03-19T12:24:42.952Z,0
2016-03-19T12:24:54.421Z,0
2016-03-19T12:25:05.858Z,0
2016-03-19T12:25:17.749Z,0
2016-03-19T12:25:29.889Z,0
2016-03-19T12:25:41.438Z,0
2016-03-19T12:25:52.844Z,0
2016-03-19T12:26:04.969Z,0
2016-03-19T12:26:16.423Z,0
2016-03-19T12:26:28.188Z,0
2016-03-19T12:26:39.550Z,0
2016-03-19T12:26:50.987Z,0
2016-03-19T12:27:02.581Z,0
2016-03-19T13:32:09.679Z,0
2016-03-19T13:32:26.116Z,0
2016-03-19T13:32:37.978Z,0
2016-03-19T13:32:52.415Z,0
2016-03-19T13:33:03.790Z,0
2016-03-19T13:33:15.118Z,0
2016-03-19T13:33:26.478Z,0
2016-03-19T13:33:37.809Z,0
2016-03-19T13:33:49.856Z,0
2016-03-19T13:34:01.777Z,0
2016-03-19T13:34:13.121Z,0
2016-03-19T13:34:24.856Z,0
2016-03-19T13:34:36.201Z,0
2016-03-19T13:34:47.545Z,0
2016-03-19T13:34:58.873Z,0
2016-03-19T13:35:11.154Z,0
2016-03-19T13:35:22.920Z,0
2016-03-19T13:35:36.815Z,0
2016-03-19T13:35:49.002Z,0
2016-03-19T13:36:00.596Z,0
2016-03-19T13:36:13.205Z,0
2016-03-19T13:36:24.924Z,0
2016-03-19T13:36:36.270Z,0
2016-03-19T13:36:49.129Z,0
2016-03-19T13:37:00.973Z,0
2016-03-19T13:37:12.317Z,0
2016-03-19T13:37:25.035Z,0
2016-03-19T13:37:36.913Z,70463
2016-03-19T13:38:04.570Z,0
2016-03-19T13:38:16.038Z,0
2016-03-19T13:38:27.476Z,0
2016-03-19T13:38:38.900Z,0
2016-03-19T13:38:50.790Z,0
2016-03-19T13:39:02.290Z,0
2016-03-19T13:39:14.431Z,0
2016-03-19T13:39:25.978Z,0
2016-03-19T13:39:38.090Z,0
2016-03-19T13:39:49.934Z,0
2016-03-19T13:40:01.700Z,0
2016-03-19T13:40:13.793Z,0
2016-03-19T13:40:25.872Z,0
2016-03-19T13:40:37.421Z,0
2016-03-19T13:40:49.609Z,0
2016-03-19T13:41:01.421Z,0
2016-03-19T13:41:13.812Z,0
2016-03-19T13:41:25.343Z,0
2016-03-19T13:41:39.253Z,0
2016-03-19T13:41:51.956Z,0
2016-03-19T13:42:04.737Z,0
2016-03-19T13:42:16.565Z,0
2016-03-19T13:42:28.003Z,0
2016-03-19T13:42:39.443Z,0
2016-03-19T13:42:51.443Z,0
2016-03-19T13:43:02.865Z,0
2016-03-19T13:43:14.271Z,0
2016-03-19T13:43:25.693Z,0
2016-03-19T13:43:38.523Z,0
2016-03-19T13:43:50.023Z,0
2016-03-19T13:44:01.398Z,0
2016-03-19T13:44:12.883Z,0
2016-03-19T13:44:24.976Z,0
2016-03-19T13:44:36.339Z,0
2016-03-19T13:44:47.729Z,0
2016-03-19T13:44:59.042Z,0
2016-03-19T13:45:10.432Z,0
2016-03-19T13:45:21.792Z,0
2016-03-19T13:45:33.154Z,0
2016-03-19T13:45:45.107Z,0
2016-03-19T13:45:56.873Z,0
2016-03-19T13:46:09.139Z,0
2016-03-19T13:46:21.217Z,92830
2016-03-19T13:46:34.594Z,93955
2016-03-19T13:46:46.469Z,94908
2016-03-19T13:46:58.797Z,95540
2016-03-19T13:47:10.734Z,96205
2016-03-19T13:47:22.500Z,96810
2016-03-19T13:47:38.158Z,97317
2016-03-19T13:47:49.643Z,97563
2016-03-19T13:48:01.221Z,97819
2016-03-19T13:48:14.174Z,97994
2016-03-19T13:48:25.564Z,97935
2016-03-19T13:48:41.099Z,97994
2016-03-19T14:19:52.933Z,684
2016-03-19T14:20:07.355Z,736
2016-03-19T14:20:18.730Z,805
2016-03-19T14:20:30.495Z,858
2016-03-19T14:20:45.373Z,884
2016-03-19T14:20:56.701Z,925
2016-03-19T14:21:11.139Z,1018
2016-03-19T14:21:22.920Z,1035
2016-03-19T14:21:34.360Z,1021
2016-03-19T14:21:45.781Z,1093
2016-03-19T14:21:57.203Z,1441
2016-03-19T14:22:09.500Z,1614
2016-03-19T14:22:21.547Z,1790
2016-03-19T14:22:32.956Z,1903
2016-03-19T14:22:46.394Z,2043
2016-03-19T14:22:58.706Z,2232
2016-03-19T14:23:10.784Z,2488
2016-03-19T14:23:23.847Z,2706
2016-03-19T14:23:35.366Z,2960
2016-03-19T14:23:46.819Z,3148
2016-03-19T14:23:58.772Z,3288
2016-03-19T14:24:10.303Z,3450
2016-03-19T14:24:21.741Z,3677
2016-03-19T14:24:33.336Z,3821
2016-03-19T14:24:44.899Z,3949
2016-03-19T14:24:56.352Z,4018
2016-03-19T14:25:07.836Z,4148
2016-03-19T14:25:19.899Z,4289
2016-03-19T14:25:31.883Z,4364
2016-03-19T14:25:43.932Z,4500
2016-03-19T14:25:55.370Z,4645
2016-03-19T14:26:06.807Z,4708
2016-03-19T14:26:19.729Z,4804
2016-03-19T14:26:32.166Z,4919
2016-03-19T14:26:44.217Z,5049
2016-03-19T14:26:55.655Z,5168
2016-03-19T14:27:07.124Z,5237
2016-03-19T14:27:18.670Z,5376
2016-03-19T14:27:30.155Z,5371
2016-03-19T14:27:42.485Z,5391
2016-03-19T14:27:53.954Z,5458
2016-03-19T14:28:05.454Z,5554
2016-03-19T14:28:17.454Z,5698
2016-03-19T14:28:28.954Z,5851
2016-03-19T14:28:41.941Z,6090
2016-03-19T14:28:53.441Z,6327
2016-03-19T14:29:05.972Z,6589
2016-03-19T14:29:22.144Z,6856
2016-03-19T14:29:33.990Z,6980
2016-03-19T14:29:46.443Z,7065
2016-03-19T14:29:58.709Z,7179
2016-03-19T14:30:11.349Z,7308
2016-03-19T14:30:22.740Z,7422
2016-03-19T14:30:35.087Z,7566
2016-03-19T14:30:46.555Z,7629
2016-03-19T14:30:58.852Z,7860
2016-03-19T14:31:11.227Z,7912
2016-03-19T14:31:22.634Z,8215
2016-03-19T14:31:34.090Z,8396
2016-03-19T14:31:46.058Z,8521
2016-03-19T14:31:57.433Z,8692
2016-03-19T14:32:08.887Z,8978
2016-03-19T14:32:20.371Z,9270
2016-03-19T14:32:31.762Z,9506
2016-03-19T14:32:43.185Z,9770
2016-03-19T14:32:54.607Z,10025
2016-03-19T14:33:06.029Z,10153
2016-03-19T14:33:18.076Z,10359
2016-03-19T14:33:29.560Z,10453
2016-03-19T14:33:40.986Z,10400
2016-03-19T14:33:52.471Z,10454
2016-03-19T14:34:03.939Z,10680
2016-03-19T14:34:15.408Z,10946
2016-03-19T14:34:26.877Z,11152
2016-03-19T14:34:38.332Z,11439
2016-03-19T14:34:49.738Z,11698
2016-03-19T14:35:01.207Z,11900
2016-03-19T14:35:13.379Z,12149
2016-03-19T14:35:24.801Z,12360
2016-03-19T14:35:36.804Z,12571
2016-03-19T16:14:41.929Z,2560
2016-03-19T16:14:54.570Z,2560
2016-03-19T16:15:06.085Z,2560
2016-03-19T16:15:17.617Z,2560
2016-03-19T16:15:29.148Z,2560
2016-03-19T16:15:40.666Z,2560
2016-03-19T16:15:52.181Z,2560
2016-03-19T16:16:04.119Z,2560
2016-03-19T16:16:16.041Z,2560
2016-03-19T16:16:28.009Z,2560
2016-03-19T16:16:39.795Z,2560
2016-03-19T16:16:51.357Z,2560
2016-03-19T16:17:03.482Z,2560
2016-03-19T16:17:15.935Z,2560
2016-03-19T16:17:28.045Z,2560
2016-03-19T16:17:39.765Z,2560
2016-03-19T16:17:51.297Z,2560
2016-03-19T16:18:03.547Z,2560
2016-03-19T16:18:17.078Z,2560
2016-03-19T16:18:28.593Z,2560
2016-03-19T16:18:40.471Z,2560
2016-03-19T16:18:54.018Z,2560
2016-03-19T16:19:06.518Z,2560
2016-03-19T16:19:25.925Z,2560
2016-03-19T16:19:38.411Z,2560
2016-03-19T16:19:50.958Z,2560
2016-03-19T16:20:02.645Z,2560
2016-03-19T16:20:14.817Z,2560
2016-03-19T16:20:28.614Z,2560
2016-03-19T16:20:41.476Z,2560
2016-03-19T16:20:54.117Z,2560
2016-03-19T16:21:06.820Z,2560
2016-03-19T16:21:19.258Z,2560
2016-03-19T16:21:31.242Z,2560
2016-03-19T16:21:43.026Z,2560
2016-03-19T16:21:54.651Z,2560
2016-03-19T16:22:07.464Z,2560
2016-03-19T16:22:20.245Z,2560
2016-03-19T16:22:31.776Z,2560
2016-03-19T16:22:43.389Z,2560
2016-03-19T16:22:55.764Z,2560
2016-03-19T16:23:07.795Z,2560
2016-03-19T16:23:19.795Z,2560
2016-03-19T16:23:31.654Z,2560
2016-03-19T16:23:43.672Z,2560
2016-03-19T16:23:55.500Z,2560
2016-03-19T16:24:07.609Z,2560
2016-03-19T16:24:19.516Z,2560
2016-03-19T16:24:31.188Z,2560
2016-03-19T16:24:43.159Z,2560
2016-03-19T16:24:54.675Z,2560
2016-03-19T16:25:06.206Z,2560
2016-03-19T16:25:18.066Z,2560
2016-03-19T16:25:29.581Z,2560
2016-03-19T16:25:41.194Z,2560
2016-03-19T16:25:52.694Z,2560
2016-03-19T16:26:04.584Z,2560
2016-03-19T16:26:16.631Z,2560
2016-03-19T16:26:29.178Z,2560
2016-03-19T16:26:41.164Z,2560
2016-03-19T16:26:53.696Z,2560
2016-03-19T16:27:05.164Z,2560
2016-03-19T16:27:17.289Z,2560
2016-03-19T16:27:29.617Z,2560
2016-03-19T16:27:41.495Z,2560
2016-03-19T16:27:53.074Z,2560
2016-03-19T16:28:04.605Z,2560
2016-03-19T16:28:16.120Z,2560
2016-03-19T16:28:27.699Z,2560
2016-03-19T16:28:39.842Z,2560
2016-03-19T16:28:51.748Z,2560
2016-03-19T16:29:03.295Z,2560
2016-03-19T16:29:15.217Z,2560
2016-03-19T16:29:30.108Z,2560
2016-03-19T16:29:42.110Z,2560
2016-03-19T16:29:53.766Z,2560
2016-03-19T16:30:05.657Z,2560
2016-03-19T16:30:18.282Z,2560
2016-03-19T16:30:34.628Z,2560
2016-03-19T16:30:46.707Z,2560
2016-03-19T17:03:27.574Z,37692
2016-03-19T17:03:39.202Z,37294
2016-03-19T17:03:51.311Z,36866
2016-03-19T17:04:03.311Z,36460
2016-03-19T17:04:16.171Z,36064
2016-03-19T17:04:27.967Z,35629
2016-03-19T17:04:39.955Z,35324
2016-03-19T17:04:52.424Z,34892
2016-03-19T17:05:03.908Z,34459
2016-03-19T17:05:15.408Z,34080
2016-03-19T17:05:27.470Z,33692
2016-03-19T17:05:39.472Z,33315
2016-03-19T17:05:51.941Z,32880
2016-03-19T17:06:04.191Z,32656
2016-03-19T17:06:15.769Z,32472
2016-03-19T17:06:28.301Z,32058
2016-03-19T17:06:41.181Z,31681
2016-03-19T17:06:54.728Z,31259
2016-03-19T17:07:13.463Z,30647
2016-03-19T17:07:26.041Z,30124
2016-03-19T17:07:37.559Z,29814
2016-03-19T17:07:49.169Z,29483
2016-03-19T17:08:00.716Z,29142
2016-03-19T17:08:12.684Z,28774
2016-03-19T17:08:24.528Z,28443
2016-03-19T17:08:36.656Z,28112
2016-03-19T17:08:49.016Z,27745
2016-03-19T17:09:00.531Z,27398
2016-03-19T17:09:12.062Z,27085
2016-03-19T17:09:23.672Z,26725
2016-03-19T17:09:35.971Z,26512
2016-03-19T17:09:47.518Z,26216
2016-03-19T17:09:59.002Z,25776
2016-03-19T17:10:10.471Z,25525
2016-03-19T17:10:21.939Z,25212
2016-03-19T17:10:34.205Z,24900
2016-03-19T17:10:46.350Z,24532
2016-03-19T17:10:57.975Z,24228
2016-03-19T17:11:09.943Z,23905
2016-03-19T17:11:24.990Z,23495
2016-03-19T17:11:36.586Z,23199
2016-03-19T17:11:48.742Z,22850
2016-03-19T17:12:00.383Z,22490
2016-03-19T17:12:12.024Z,22184
2016-03-19T17:12:23.899Z,21863
2016-03-19T17:12:35.839Z,21495
2016-03-19T17:12:47.370Z,21218
2016-03-19T17:12:59.230Z,20958
2016-03-19T17:13:10.823Z,20763
2016-03-19T17:13:22.964Z,20497
2016-03-19T17:13:34.950Z,20202
2016-03-19T17:13:47.122Z,19936
2016-03-19T17:13:58.747Z,19660
2016-03-19T17:14:10.310Z,19402
2016-03-19T17:14:22.091Z,19116
2016-03-19T17:14:33.638Z,18877
2016-03-19T17:14:45.266Z,18591
2016-03-19T17:14:56.828Z,18323
2016-03-19T17:15:08.407Z,18074
2016-03-19T17:15:19.969Z,17797
2016-03-19T17:15:31.547Z,17574
2016-03-19T17:15:43.113Z,17341
2016-03-19T17:15:54.738Z,17146
2016-03-19T17:16:06.394Z,16895
2016-03-19T17:16:18.066Z,16662
2016-03-19T17:16:30.519Z,16413
2016-03-19T17:16:42.740Z,16135
2016-03-19T17:16:54.318Z,15919
2016-03-19T17:17:05.849Z,15740
2016-03-19T17:17:17.349Z,15488
2016-03-19T17:17:30.146Z,15284
2016-03-19T17:17:41.978Z,15069
2016-03-19T17:17:54.056Z,14792
2016-03-19T17:18:05.681Z,14569
2016-03-19T17:18:17.291Z,14373
2016-03-19T17:18:28.916Z,14239
2016-03-19T17:18:40.511Z,14043
2016-03-19T17:18:52.558Z,13839
2016-03-19T17:19:04.449Z,13625
2016-03-19T17:19:16.808Z,13411
2016-03-19T18:45:46.245Z,15
2016-03-19T18:45:58.183Z,15
2016-03-19T18:46:10.948Z,15
2016-03-19T18:46:23.027Z,15
2016-03-19T18:46:35.152Z,15
2016-03-19T18:46:48.014Z,15
2016-03-19T18:46:59.498Z,15
2016-03-19T18:47:11.248Z,15
2016-03-19T18:47:23.217Z,15
2016-03-19T18:47:34.639Z,15
2016-03-19T18:47:49.064Z,15
2016-03-19T18:48:01.001Z,15
2016-03-19T18:48:12.720Z,15
2016-03-19T18:48:24.814Z,15
2016-03-19T18:48:36.550Z,15
2016-03-19T18:48:48.363Z,15
2016-03-19T18:48:59.925Z,15
2016-03-19T18:49:11.441Z,15
2016-03-19T18:49:25.160Z,15
2016-03-19T18:49:37.177Z,15
2016-03-19T18:49:49.130Z,15
2016-03-19T18:50:00.943Z,15
2016-03-19T18:50:12.740Z,15
2016-03-19T18:50:24.365Z,15
2016-03-19T18:50:36.352Z,15
2016-03-19T18:50:47.821Z,15
2016-03-19T18:50:59.540Z,0
2016-03-19T18:51:11.399Z,15
2016-03-19T18:51:23.711Z,15
2016-03-19T18:51:35.118Z,15
2016-03-19T18:51:46.980Z,15
2016-03-19T18:52:03.886Z,15
2016-03-19T18:52:17.121Z,15
2016-03-19T18:52:29.511Z,15
2016-03-19T18:52:41.639Z,15
2016-03-19T18:52:53.499Z,15
2016-03-19T18:53:05.014Z,15
2016-03-19T18:53:17.421Z,15
2016-03-19T18:53:29.358Z,15
2016-03-19T18:53:41.563Z,15
2016-03-19T18:53:52.985Z,15
2016-03-19T18:54:11.923Z,0
2016-03-19T18:54:23.813Z,0
2016-03-19T18:54:35.251Z,0
2016-03-19T18:54:46.754Z,0
2016-03-19T18:54:58.254Z,0
2016-03-19T18:55:10.207Z,0
2016-03-19T18:55:21.691Z,0
2016-03-19T18:55:33.160Z,0
2016-03-19T18:55:44.913Z,15
2016-03-19T18:55:56.913Z,15
2016-03-19T18:56:08.772Z,15
2016-03-19T18:56:20.241Z,0
2016-03-19T18:56:31.710Z,0
2016-03-19T18:56:43.227Z,0
2016-03-19T18:56:54.681Z,15
2016-03-19T18:57:06.259Z,15
2016-03-19T18:57:17.790Z,15
2016-03-19T18:57:29.790Z,15
2016-03-19T18:57:45.965Z,15
2016-03-19T18:57:57.418Z,0
2016-03-19T18:58:10.059Z,0
2016-03-19T18:58:21.793Z,0
2016-03-19T18:58:33.730Z,0
2016-03-19T18:58:45.671Z,0
2016-03-19T18:58:57.233Z,0
2016-03-19T18:59:09.108Z,0
2016-03-19T18:59:20.749Z,0
2016-03-19T18:59:32.687Z,0
2016-03-19T18:59:44.190Z,0
2016-03-19T18:59:56.518Z,0
2016-03-19T19:00:08.830Z,0
2016-03-19T19:00:21.658Z,0
2016-03-19T19:00:33.549Z,0
2016-03-19T19:00:46.629Z,0
2016-03-19T19:00:59.660Z,0
2016-03-19T19:01:16.520Z,0
2016-03-19T19:01:28.442Z,0
2016-03-19T19:01:40.898Z,0
2016-03-19T19:01:53.663Z,0
2016-03-19T19:02:06.679Z,0
2016-03-19T19:36:53.811Z,15
2016-03-19T19:37:10.483Z,15
2016-03-19T19:37:27.608Z,15
2016-03-19T19:37:48.094Z,15
2016-03-19T19:38:03.047Z,15
2016-03-19T19:38:19.531Z,15
2016-03-19T19:38:35.797Z,0
2016-03-19T19:38:52.502Z,0
2016-03-19T19:39:09.174Z,15
2016-03-19T19:39:25.564Z,15
2016-03-19T19:39:41.379Z,15
2016-03-19T19:39:58.941Z,15
2016-03-19T19:40:14.988Z,15
2016-03-19T19:40:35.676Z,0
2016-03-19T19:40:53.069Z,15
2016-03-19T19:41:08.632Z,0
2016-03-19T19:41:29.772Z,15
2016-03-19T19:41:56.587Z,15
2016-03-19T19:42:21.853Z,15
2016-03-19T19:42:45.793Z,15
2016-03-19T19:43:09.449Z,15
2016-03-19T19:43:40.359Z,15
2016-03-19T19:44:07.999Z,15
2016-03-19T19:44:29.999Z,15
2016-03-19T19:44:48.190Z,15
2016-03-19T19:45:06.580Z,15
2016-03-19T19:45:25.737Z,15
2016-03-19T19:45:44.864Z,0
2016-03-19T19:46:07.114Z,15
2016-03-19T19:46:31.442Z,15
2016-03-19T19:46:52.303Z,15
2016-03-19T19:47:21.553Z,0
2016-03-19T19:47:46.087Z,15
2016-03-19T19:48:10.603Z,0
2016-03-19T19:48:37.465Z,15
2016-03-19T19:49:05.887Z,0
2016-03-19T19:49:44.639Z,15
2016-03-19T19:50:24.233Z,15
2016-03-19T19:51:08.839Z,0
2016-03-19T19:51:35.948Z,0
2016-03-19T19:51:57.341Z,0
2016-03-19T19:52:17.434Z,0
2016-03-19T19:52:39.687Z,0
2016-03-19T19:52:57.219Z,0
2016-03-19T19:53:16.734Z,0
2016-03-19T19:53:34.687Z,0
2016-03-19T19:53:51.283Z,0
2016-03-19T19:54:07.377Z,0
2016-03-19T19:54:25.767Z,0
2016-03-19T19:54:41.255Z,0
2016-03-19T19:55:04.177Z,0
2016-03-19T19:55:26.677Z,0
2016-03-19T19:55:47.883Z,0
2016-03-19T19:56:12.805Z,0
2016-03-19T19:56:31.398Z,0
2016-03-19T19:56:51.572Z,0
2016-03-19T19:57:13.244Z,0
2016-03-19T19:57:32.322Z,0
2016-03-19T19:57:48.623Z,0
2016-03-19T19:58:07.498Z,0
2016-03-19T19:58:26.186Z,0
2016-03-19T19:58:46.344Z,0
2016-03-19T19:59:02.360Z,0
2016-03-19T19:59:20.750Z,0
2016-03-19T19:59:40.706Z,0
2016-03-19T19:59:55.863Z,0
2016-03-19T20:00:13.613Z,0
2016-03-19T20:00:30.363Z,0
2016-03-19T20:00:50.052Z,0
2016-03-19T20:01:05.333Z,0
2016-03-19T20:01:20.974Z,0
2016-03-19T20:01:45.586Z,15
2016-03-19T20:02:10.946Z,15
2016-03-19T20:02:32.133Z,15
2016-03-19T20:02:54.308Z,0
2016-03-19T20:03:15.511Z,15
2016-03-19T20:03:34.152Z,0
2016-03-19T20:03:52.874Z,0
2016-03-19T20:04:20.733Z,0
2016-03-19T20:04:42.219Z,0
2016-03-19T20:05:10.985Z,0
2016-03-19T20:05:41.299Z,0
2016-03-19T20:06:08.534Z,0
2016-03-19T20:06:35.510Z,0
2016-03-19T20:06:57.077Z,0
2016-03-19T20:07:18.656Z,0
2016-03-19T20:07:41.127Z,0
2016-03-19T20:07:59.986Z,0
2016-03-19T20:08:19.252Z,0
2016-03-19T20:08:39.989Z,0
2016-03-19T20:09:01.333Z,0
2016-03-19T20:09:17.817Z,0
2016-03-19T20:09:39.210Z,0
2016-03-19T20:09:59.835Z,0
2016-03-19T20:10:20.241Z,0
2016-03-19T20:10:41.150Z,0
2016-03-19T20:11:05.088Z,0
2016-03-19T20:11:42.528Z,0
2016-03-19T20:12:15.325Z,0
2016-03-19T20:12:43.765Z,0
2016-03-19T20:13:18.827Z,0
2016-03-19T20:13:49.066Z,0
2016-03-19T20:14:29.566Z,15
2016-03-19T20:15:13.224Z,15
2016-03-19T20:15:54.899Z,0
2016-03-19T20:16:27.211Z,0
2016-03-19T20:17:04.854Z,15
2016-03-19T20:17:37.466Z,0
2016-03-19T20:18:15.310Z,0
2016-03-19T20:18:59.547Z,0
2016-03-19T20:19:44.487Z,0
2016-03-19T20:20:12.549Z,0
2016-03-19T20:20:49.537Z,0
2016-03-19T20:21:24.771Z,15
2016-03-19T20:22:11.290Z,15
2016-03-19T20:22:59.621Z,0
2016-03-19T20:23:36.761Z,0
2016-03-19T20:24:11.482Z,0
2016-03-19T20:24:49.329Z,15
2016-03-19T20:25:33.891Z,15
2016-03-19T20:26:18.441Z,0
2016-03-19T20:27:03.475Z,0
2016-03-19T20:27:41.478Z,0
2016-03-19T20:28:22.274Z,0
2016-03-19T20:29:05.105Z,15
2016-03-19T20:29:49.015Z,15
2016-03-19T20:30:26.655Z,15
2016-03-19T20:31:06.486Z,15
2016-03-19T20:31:40.348Z,15
2016-03-19T20:32:10.160Z,0
2016-03-19T20:32:45.631Z,0
2016-03-19T20:33:26.553Z,0
